Terminal Aerodrome Forecast
Issued by NWS

Home | Current Version | Previous Version | Text Only | Print | Product List | Glossary On
Versions: 1 2 3 4 5 6 7 8 9 10 11 12 13 14 15 16 17 18 19 20 21 22
000
FTUS46 KMFR 071149
TAFRBG
TAF
KRBG 071149Z 0712/0812 00000KT P6SM SCT020
     FM071300 00000KT P6SM BKN007 OVC015
     FM072100 00000KT P6SM OVC020
     FM072300 VRB02KT P6SM SCT020 SCT150
     FM080500 VRB03KT P6SM VCSH BKN040 OVC100
     FM080900 VRB02KT P6SM -RA BKN035 OVC050=

USA.gov is the U.S. government's official web portal to all federal, state and local government web resources and services.